sensor_id;sensor_type;location;lat;lon;timestamp;pressure;altitude;pressure_sealevel;temperature;humidity
52319;BME280;38258;51.148;14.068;2022-11-30T00:00:06;98859.88;;;0.56;100.00
52319;BME280;38258;51.148;14.068;2022-11-30T00:02:37;98840.91;;;0.53;100.00
52319;BME280;38258;51.148;14.068;2022-11-30T00:05:06;98871.25;;;0.69;100.00
52319;BME280;38258;51.148;14.068;2022-11-30T00:07:33;98863.47;;;0.65;100.00
52319;BME280;38258;51.148;14.068;2022-11-30T00:10:00;98857.38;;;0.61;100.00
52319;BME280;38258;51.148;14.068;2022-11-30T00:12:27;98852.84;;;0.48;100.00
52319;BME280;38258;51.148;14.068;2022-11-30T00:14:54;98872.84;;;0.63;100.00
52319;BME280;38258;51.148;14.068;2022-11-30T00:17:20;98871.09;;;0.62;100.00
52319;BME280;38258;51.148;14.068;2022-11-30T00:19:47;98846.81;;;0.47;100.00
52319;BME280;38258;51.148;14.068;2022-11-30T00:22:15;98854.84;;;0.64;100.00
52319;BME280;38258;51.148;14.068;2022-11-30T00:24:42;98872.22;;;0.75;100.00
52319;BME280;38258;51.148;14.068;2022-11-30T00:27:08;98863.56;;;0.71;100.00
52319;BME280;38258;51.148;14.068;2022-11-30T00:29:35;98877.38;;;0.75;100.00
52319;BME280;38258;51.148;14.068;2022-11-30T00:32:02;98811.38;;;0.34;100.00
52319;BME280;38258;51.148;14.068;2022-11-30T00:34:28;98876.69;;;0.83;100.00
52319;BME280;38258;51.148;14.068;2022-11-30T00:36:55;98880.09;;;0.82;100.00
52319;BME280;38258;51.148;14.068;2022-11-30T00:39:24;98877.56;;;0.86;100.00
52319;BME280;38258;51.148;14.068;2022-11-30T00:41:51;98873.28;;;0.86;100.00
52319;BME280;38258;51.148;14.068;2022-11-30T00:44:17;98861.97;;;0.78;100.00
52319;BME280;38258;51.148;14.068;2022-11-30T00:46:44;98872.59;;;0.95;100.00
52319;BME280;38258;51.148;14.068;2022-11-30T00:49:10;98872.59;;;0.95;100.00
52319;BME280;38258;51.148;14.068;2022-11-30T00:51:37;98866.53;;;0.93;100.00
52319;BME280;38258;51.148;14.068;2022-11-30T00:54:04;98871.84;;;1.01;100.00
52319;BME280;38258;51.148;14.068;2022-11-30T00:56:32;98867.16;;;0.79;100.00
52319;BME280;38258;51.148;14.068;2022-11-30T00:58:59;98877.63;;;0.89;100.00
52319;BME280;38258;51.148;14.068;2022-11-30T01:01:25;98871.69;;;0.93;100.00
52319;BME280;38258;51.148;14.068;2022-11-30T01:03:52;98806.50;;;0.48;100.00
52319;BME280;38258;51.148;14.068;2022-11-30T01:06:19;98862.97;;;0.86;100.00
52319;BME280;38258;51.148;14.068;2022-11-30T01:08:45;98838.38;;;0.56;100.00
52319;BME280;38258;51.148;14.068;2022-11-30T01:11:15;98874.75;;;0.73;100.00
52319;BME280;38258;51.148;14.068;2022-11-30T01:13:43;98872.56;;;0.93;100.00
52319;BME280;38258;51.148;14.068;2022-11-30T01:16:12;98874.34;;;0.97;100.00
52319;BME280;38258;51.148;14.068;2022-11-30T01:18:40;98856.22;;;0.93;100.00
52319;BME280;38258;51.148;14.068;2022-11-30T01:21:08;98875.09;;;0.90;100.00
52319;BME280;38258;51.148;14.068;2022-11-30T01:23:35;98864.09;;;0.99;100.00
52319;BME280;38258;51.148;14.068;2022-11-30T01:26:01;98866.53;;;0.93;100.00
52319;BME280;38258;51.148;14.068;2022-11-30T01:28:28;98867.38;;;0.90;100.00
52319;BME280;38258;51.148;14.068;2022-11-30T01:30:57;98876.03;;;0.94;100.00
52319;BME280;38258;51.148;14.068;2022-11-30T01:33:24;98824.59;;;0.52;100.00
52319;BME280;38258;51.148;14.068;2022-11-30T01:35:58;98857.91;;;0.91;100.00
52319;BME280;38258;51.148;14.068;2022-11-30T01:38:24;98875.94;;;0.89;100.00
52319;BME280;38258;51.148;14.068;2022-11-30T01:40:52;98818.56;;;0.50;100.00
52319;BME280;38258;51.148;14.068;2022-11-30T01:43:18;98855.94;;;0.76;100.00
52319;BME280;38258;51.148;14.068;2022-11-30T01:45:46;98830.66;;;0.56;100.00
52319;BME280;38258;51.148;14.068;2022-11-30T01:48:15;98861.00;;;0.71;100.00
52319;BME280;38258;51.148;14.068;2022-11-30T01:50:43;98838.22;;;0.47;100.00
52319;BME280;38258;51.148;14.068;2022-11-30T01:53:10;98831.31;;;0.44;100.00
52319;BME280;38258;51.148;14.068;2022-11-30T01:55:39;98885.13;;;0.76;100.00
52319;BME280;38258;51.148;14.068;2022-11-30T01:58:09;98866.66;;;0.53;100.00
52319;BME280;38258;51.148;14.068;2022-11-30T02:00:38;98877.19;;;0.65;100.00
52319;BME280;38258;51.148;14.068;2022-11-30T02:03:12;98840.50;;;0.33;100.00
52319;BME280;38258;51.148;14.068;2022-11-30T02:05:43;98885.59;;;0.56;100.00
52319;BME280;38258;51.148;14.068;2022-11-30T02:08:10;98843.22;;;-0.03;100.00
52319;BME280;38258;51.148;14.068;2022-11-30T02:10:39;98887.78;;;0.36;100.00
52319;BME280;38258;51.148;14.068;2022-11-30T02:13:34;98875.75;;;0.35;100.00
52319;BME280;38258;51.148;14.068;2022-11-30T02:16:09;98844.19;;;0.03;100.00
52319;BME280;38258;51.148;14.068;2022-11-30T02:18:46;98881.72;;;0.34;100.00
52319;BME280;38258;51.148;14.068;2022-11-30T02:21:18;98884.25;;;0.31;100.00
52319;BME280;38258;51.148;14.068;2022-11-30T02:24:12;98844.66;;;-0.16;100.00
52319;BME280;38258;51.148;14.068;2022-11-30T02:26:53;98888.19;;;0.15;100.00
52319;BME280;38258;51.148;14.068;2022-11-30T02:29:28;98884.16;;;-0.12;100.00
52319;BME280;38258;51.148;14.068;2022-11-30T02:32:01;98860.09;;;-0.52;100.00
52319;BME280;38258;51.148;14.068;2022-11-30T02:34:33;98888.09;;;-0.28;100.00
52319;BME280;38258;51.148;14.068;2022-11-30T02:37:02;98884.41;;;-0.38;100.00
52319;BME280;38258;51.148;14.068;2022-11-30T02:39:30;98865.34;;;-0.49;100.00
52319;BME280;38258;51.148;14.068;2022-11-30T02:41:57;98890.72;;;-0.62;100.00
52319;BME280;38258;51.148;14.068;2022-11-30T02:44:25;98893.56;;;-0.86;100.00
52319;BME280;38258;51.148;14.068;2022-11-30T02:47:00;98889.28;;;-0.86;100.00
52319;BME280;38258;51.148;14.068;2022-11-30T02:49:34;98900.13;;;-0.96;100.00
52319;BME280;38258;51.148;14.068;2022-11-30T02:52:04;98891.00;;;-1.18;100.00
52319;BME280;38258;51.148;14.068;2022-11-30T02:54:32;98889.00;;;-0.96;100.00
52319;BME280;38258;51.148;14.068;2022-11-30T02:56:59;98894.13;;;-0.96;100.00
52319;BME280;38258;51.148;14.068;2022-11-30T02:59:28;98887.78;;;-0.77;100.00
52319;BME280;38258;51.148;14.068;2022-11-30T03:01:54;98897.28;;;-0.73;100.00
52319;BME280;38258;51.148;14.068;2022-11-30T03:04:21;98900.38;;;-0.87;100.00
52319;BME280;38258;51.148;14.068;2022-11-30T03:06:48;98904.47;;;-0.93;100.00
52319;BME280;38258;51.148;14.068;2022-11-30T03:09:14;98908.75;;;-1.26;100.00
52319;BME280;38258;51.148;14.068;2022-11-30T03:11:41;98908.81;;;-1.24;100.00
52319;BME280;38258;51.148;14.068;2022-11-30T03:14:08;98913.88;;;-0.94;100.00
52319;BME280;38258;51.148;14.068;2022-11-30T03:16:37;98887.59;;;-0.85;100.00
52319;BME280;38258;51.148;14.068;2022-11-30T03:19:04;98908.84;;;-0.55;100.00
52319;BME280;38258;51.148;14.068;2022-11-30T03:21:31;98897.25;;;-0.75;100.00
52319;BME280;38258;51.148;14.068;2022-11-30T03:23:58;98910.00;;;-0.44;100.00
52319;BME280;38258;51.148;14.068;2022-11-30T03:26:24;98868.00;;;-0.80;100.00
52319;BME280;38258;51.148;14.068;2022-11-30T03:28:51;98913.03;;;-0.59;100.00
52319;BME280;38258;51.148;14.068;2022-11-30T03:31:18;98906.94;;;-0.27;100.00
52319;BME280;38258;51.148;14.068;2022-11-30T03:33:45;98913.72;;;-0.66;100.00
52319;BME280;38258;51.148;14.068;2022-11-30T03:36:12;98901.91;;;-0.60;100.00
52319;BME280;38258;51.148;14.068;2022-11-30T03:38:39;98874.84;;;-0.80;100.00
52319;BME280;38258;51.148;14.068;2022-11-30T03:41:08;98910.63;;;-0.53;100.00
52319;BME280;38258;51.148;14.068;2022-11-30T03:43:35;98914.69;;;-0.63;100.00
52319;BME280;38258;51.148;14.068;2022-11-30T03:46:02;98894.28;;;-0.57;100.00
52319;BME280;38258;51.148;14.068;2022-11-30T03:48:29;98902.13;;;-0.50;100.00
52319;BME280;38258;51.148;14.068;2022-11-30T03:50:57;98916.53;;;-0.57;100.00
52319;BME280;38258;51.148;14.068;2022-11-30T03:53:24;98923.97;;;-0.68;100.00
52319;BME280;38258;51.148;14.068;2022-11-30T03:55:52;98902.94;;;-0.87;100.00
52319;BME280;38258;51.148;14.068;2022-11-30T03:58:19;98806.88;;;-1.29;100.00
52319;BME280;38258;51.148;14.068;2022-11-30T04:00:47;98918.03;;;-0.65;100.00
52319;BME280;38258;51.148;14.068;2022-11-30T04:03:14;98914.75;;;-0.60;100.00
52319;BME280;38258;51.148;14.068;2022-11-30T04:05:41;98890.50;;;-0.71;100.00
52319;BME280;38258;51.148;14.068;2022-11-30T04:08:09;98923.97;;;-0.68;100.00
52319;BME280;38258;51.148;14.068;2022-11-30T04:10:36;98922.78;;;-0.47;100.00
52319;BME280;38258;51.148;14.068;2022-11-30T04:13:03;98924.88;;;-0.66;100.00
52319;BME280;38258;51.148;14.068;2022-11-30T04:15:30;98920.94;;;-0.87;100.00
52319;BME280;38258;51.148;14.068;2022-11-30T04:17:57;98922.09;;;-1.07;100.00
52319;BME280;38258;51.148;14.068;2022-11-30T04:20:24;98921.16;;;-1.11;100.00
52319;BME280;38258;51.148;14.068;2022-11-30T04:22:51;98924.88;;;-1.00;100.00
52319;BME280;38258;51.148;14.068;2022-11-30T04:25:19;98932.25;;;-1.43;100.00
52319;BME280;38258;51.148;14.068;2022-11-30T04:27:46;98928.63;;;-1.49;100.00
52319;BME280;38258;51.148;14.068;2022-11-30T04:30:13;98930.97;;;-1.57;100.00
52319;BME280;38258;51.148;14.068;2022-11-30T04:32:41;98924.34;;;-1.50;100.00
52319;BME280;38258;51.148;14.068;2022-11-30T04:35:08;98930.44;;;-1.47;100.00
52319;BME280;38258;51.148;14.068;2022-11-30T04:37:35;98926.97;;;-1.47;100.00
52319;BME280;38258;51.148;14.068;2022-11-30T04:40:04;98924.13;;;-1.58;100.00
52319;BME280;38258;51.148;14.068;2022-11-30T04:42:33;98933.41;;;-1.62;100.00
52319;BME280;38258;51.148;14.068;2022-11-30T04:45:00;98936.88;;;-1.60;100.00
52319;BME280;38258;51.148;14.068;2022-11-30T04:47:27;98929.19;;;-1.60;100.00
52319;BME280;38258;51.148;14.068;2022-11-30T04:49:54;98937.84;;;-1.56;100.00
52319;BME280;38258;51.148;14.068;2022-11-30T04:52:20;98938.13;;;-1.47;100.00
52319;BME280;38258;51.148;14.068;2022-11-30T04:54:47;98907.75;;;-1.91;100.00
52319;BME280;38258;51.148;14.068;2022-11-30T04:57:16;98939.81;;;-1.76;100.00
52319;BME280;38258;51.148;14.068;2022-11-30T04:59:44;98943.13;;;-1.80;100.00
52319;BME280;38258;51.148;14.068;2022-11-30T05:02:11;98947.75;;;-1.68;100.00
52319;BME280;38258;51.148;14.068;2022-11-30T05:04:38;98941.63;;;-1.74;100.00
52319;BME280;38258;51.148;14.068;2022-11-30T05:07:05;98943.03;;;-1.83;100.00
52319;BME280;38258;51.148;14.068;2022-11-30T05:09:32;98924.34;;;-2.08;100.00
52319;BME280;38258;51.148;14.068;2022-11-30T05:11:59;98955.19;;;-2.05;100.00
52319;BME280;38258;51.148;14.068;2022-11-30T05:14:26;98949.78;;;-2.15;100.00
52319;BME280;38258;51.148;14.068;2022-11-30T05:16:54;98962.63;;;-2.13;100.00
52319;BME280;38258;51.148;14.068;2022-11-30T05:19:21;98964.28;;;-2.15;100.00
52319;BME280;38258;51.148;14.068;2022-11-30T05:21:48;98964.09;;;-2.21;100.00
52319;BME280;38258;51.148;14.068;2022-11-30T05:24:16;98970.03;;;-2.22;100.00
52319;BME280;38258;51.148;14.068;2022-11-30T05:26:43;98970.97;;;-2.20;100.00
52319;BME280;38258;51.148;14.068;2022-11-30T05:29:10;98970.63;;;-2.04;100.00
52319;BME280;38258;51.148;14.068;2022-11-30T05:31:37;98962.78;;;-2.08;100.00
52319;BME280;38258;51.148;14.068;2022-11-30T05:34:07;98934.19;;;-2.21;100.00
52319;BME280;38258;51.148;14.068;2022-11-30T05:36:33;98977.78;;;-1.93;100.00
52319;BME280;38258;51.148;14.068;2022-11-30T05:39:00;98973.38;;;-1.97;100.00
52319;BME280;38258;51.148;14.068;2022-11-30T05:41:27;98970.13;;;-1.92;100.00
52319;BME280;38258;51.148;14.068;2022-11-30T05:43:55;98979.53;;;-1.92;100.00
52319;BME280;38258;51.148;14.068;2022-11-30T05:46:22;98930.44;;;-2.05;100.00
52319;BME280;38258;51.148;14.068;2022-11-30T05:48:49;98980.94;;;-1.44;100.00
52319;BME280;38258;51.148;14.068;2022-11-30T05:51:18;98982.53;;;-1.49;100.00
52319;BME280;38258;51.148;14.068;2022-11-30T05:53:46;98982.97;;;-1.34;100.00
52319;BME280;38258;51.148;14.068;2022-11-30T05:56:15;98982.81;;;-1.38;100.00
52319;BME280;38258;51.148;14.068;2022-11-30T05:58:50;98976.31;;;-1.27;100.00
52319;BME280;38258;51.148;14.068;2022-11-30T06:01:18;98974.91;;;-1.46;100.00
52319;BME280;38258;51.148;14.068;2022-11-30T06:03:46;98983.78;;;-1.35;100.00
52319;BME280;38258;51.148;14.068;2022-11-30T06:06:13;98985.91;;;-1.50;100.00
52319;BME280;38258;51.148;14.068;2022-11-30T06:08:41;98979.09;;;-1.50;100.00
52319;BME280;38258;51.148;14.068;2022-11-30T06:11:08;98970.50;;;-1.79;100.00
52319;BME280;38258;51.148;14.068;2022-11-30T06:13:35;98991.72;;;-1.85;100.00
52319;BME280;38258;51.148;14.068;2022-11-30T06:16:03;98990.84;;;-1.86;100.00
52319;BME280;38258;51.148;14.068;2022-11-30T06:18:31;98992.06;;;-2.02;100.00
52319;BME280;38258;51.148;14.068;2022-11-30T06:20:59;98988.41;;;-2.08;100.00
52319;BME280;38258;51.148;14.068;2022-11-30T06:23:27;98991.66;;;-2.14;100.00
52319;BME280;38258;51.148;14.068;2022-11-30T06:25:55;98994.06;;;-2.19;100.00
52319;BME280;38258;51.148;14.068;2022-11-30T06:28:22;98990.28;;;-2.30;100.00
52319;BME280;38258;51.148;14.068;2022-11-30T06:30:50;98999.72;;;-2.29;100.00
52319;BME280;38258;51.148;14.068;2022-11-30T06:33:21;98987.03;;;-1.69;100.00
52319;BME280;38258;51.148;14.068;2022-11-30T06:35:48;98996.94;;;-1.82;100.00
52319;BME280;38258;51.148;14.068;2022-11-30T06:38:15;98991.66;;;-1.87;100.00
52319;BME280;38258;51.148;14.068;2022-11-30T06:40:42;98999.84;;;-1.71;100.00
52319;BME280;38258;51.148;14.068;2022-11-30T06:43:11;99000.75;;;-1.69;100.00
52319;BME280;38258;51.148;14.068;2022-11-30T06:45:38;99001.78;;;-1.91;100.00
52319;BME280;38258;51.148;14.068;2022-11-30T06:48:05;99004.44;;;-1.88;100.00
52319;BME280;38258;51.148;14.068;2022-11-30T06:50:32;99006.19;;;-1.87;100.00
52319;BME280;38258;51.148;14.068;2022-11-30T06:52:59;99008.06;;;-1.81;100.00
52319;BME280;38258;51.148;14.068;2022-11-30T06:55:26;99009.31;;;-1.96;100.00
52319;BME280;38258;51.148;14.068;2022-11-30T06:58:03;98973.47;;;-2.22;100.00
52319;BME280;38258;51.148;14.068;2022-11-30T07:00:32;99015.03;;;-2.05;100.00
52319;BME280;38258;51.148;14.068;2022-11-30T07:02:59;99014.81;;;-2.11;100.00
52319;BME280;38258;51.148;14.068;2022-11-30T07:05:26;99015.72;;;-2.09;100.00
52319;BME280;38258;51.148;14.068;2022-11-30T07:07:54;99018.28;;;-2.10;100.00
52319;BME280;38258;51.148;14.068;2022-11-30T07:10:21;99008.59;;;-2.19;100.00
52319;BME280;38258;51.148;14.068;2022-11-30T07:12:48;99026.06;;;-1.80;100.00
52319;BME280;38258;51.148;14.068;2022-11-30T07:15:16;99030.25;;;-1.83;100.00
52319;BME280;38258;51.148;14.068;2022-11-30T07:17:44;98987.28;;;-2.17;100.00
52319;BME280;38258;51.148;14.068;2022-11-30T07:20:12;99024.22;;;-1.84;100.00
52319;BME280;38258;51.148;14.068;2022-11-30T07:22:39;99029.44;;;-1.81;100.00
52319;BME280;38258;51.148;14.068;2022-11-30T07:25:06;99029.75;;;-1.72;100.00
52319;BME280;38258;51.148;14.068;2022-11-30T07:27:51;99036.94;;;-1.60;100.00
52319;BME280;38258;51.148;14.068;2022-11-30T07:30:18;99034.28;;;-1.63;100.00
52319;BME280;38258;51.148;14.068;2022-11-30T07:32:46;99042.88;;;-1.33;100.00
52319;BME280;38258;51.148;14.068;2022-11-30T07:35:13;99040.34;;;-1.32;100.00
52319;BME280;38258;51.148;14.068;2022-11-30T07:37:40;99041.84;;;-1.09;100.00
52319;BME280;38258;51.148;14.068;2022-11-30T07:40:08;99046.44;;;-0.99;100.00
52319;BME280;38258;51.148;14.068;2022-11-30T07:42:35;99039.00;;;-0.90;100.00
52319;BME280;38258;51.148;14.068;2022-11-30T07:45:03;99043.91;;;-0.97;100.00
52319;BME280;38258;51.148;14.068;2022-11-30T07:47:30;99046.09;;;-0.79;100.00
52319;BME280;38258;51.148;14.068;2022-11-30T07:49:58;99045.63;;;-0.66;100.00
52319;BME280;38258;51.148;14.068;2022-11-30T07:52:25;99047.06;;;-0.77;100.00
52319;BME280;38258;51.148;14.068;2022-11-30T07:54:52;99052.59;;;-0.62;100.00
52319;BME280;38258;51.148;14.068;2022-11-30T07:57:19;99042.19;;;-0.66;100.00
52319;BME280;38258;51.148;14.068;2022-11-30T07:59:46;99044.22;;;-0.54;100.00
52319;BME280;38258;51.148;14.068;2022-11-30T08:02:13;99042.63;;;-0.17;100.00
52319;BME280;38258;51.148;14.068;2022-11-30T08:04:40;99045.88;;;0.11;100.00
52319;BME280;38258;51.148;14.068;2022-11-30T08:07:08;99044.41;;;0.21;100.00
52319;BME280;38258;51.148;14.068;2022-11-30T08:09:35;99047.75;;;0.55;100.00
52319;BME280;38258;51.148;14.068;2022-11-30T08:12:02;99044.88;;;0.81;100.00
52319;BME280;38258;51.148;14.068;2022-11-30T08:14:29;99045.81;;;0.84;100.00
52319;BME280;38258;51.148;14.068;2022-11-30T08:16:56;99043.72;;;0.66;100.00
52319;BME280;38258;51.148;14.068;2022-11-30T08:19:23;99038.56;;;0.66;100.00
52319;BME280;38258;51.148;14.068;2022-11-30T08:21:50;99046.72;;;0.87;100.00
52319;BME280;38258;51.148;14.068;2022-11-30T08:24:18;99041.59;;;0.88;100.00
52319;BME280;38258;51.148;14.068;2022-11-30T08:26:49;99046.34;;;1.11;100.00
52319;BME280;38258;51.148;14.068;2022-11-30T08:29:16;99044.44;;;1.01;100.00
52319;BME280;38258;51.148;14.068;2022-11-30T08:31:43;99045.81;;;1.27;100.00
52319;BME280;38258;51.148;14.068;2022-11-30T08:34:11;99049.81;;;1.56;100.00
52319;BME280;38258;51.148;14.068;2022-11-30T08:36:39;99058.09;;;1.41;100.00
52319;BME280;38258;51.148;14.068;2022-11-30T08:39:11;99047.09;;;1.99;100.00
52319;BME280;38258;51.148;14.068;2022-11-30T08:41:39;99059.59;;;1.76;100.00
52319;BME280;38258;51.148;14.068;2022-11-30T08:44:06;99040.69;;;1.75;100.00
52319;BME280;38258;51.148;14.068;2022-11-30T08:46:33;99059.78;;;1.85;100.00
52319;BME280;38258;51.148;14.068;2022-11-30T08:49:01;99059.00;;;1.89;100.00
52319;BME280;38258;51.148;14.068;2022-11-30T08:51:28;99073.78;;;2.00;100.00
52319;BME280;38258;51.148;14.068;2022-11-30T08:53:55;99063.97;;;1.78;100.00
52319;BME280;38258;51.148;14.068;2022-11-30T08:56:22;99037.84;;;1.61;100.00
52319;BME280;38258;51.148;14.068;2022-11-30T08:58:50;99076.19;;;1.89;100.00
52319;BME280;38258;51.148;14.068;2022-11-30T09:01:20;99070.53;;;2.10;100.00
52319;BME280;38258;51.148;14.068;2022-11-30T09:03:48;99073.38;;;2.25;100.00
52319;BME280;38258;51.148;14.068;2022-11-30T09:06:17;99073.66;;;2.44;100.00
52319;BME280;38258;51.148;14.068;2022-11-30T09:08:46;99075.41;;;3.07;100.00
52319;BME280;38258;51.148;14.068;2022-11-30T09:11:15;99076.63;;;2.71;100.00
52319;BME280;38258;51.148;14.068;2022-11-30T09:13:43;99076.16;;;2.39;100.00
52319;BME280;38258;51.148;14.068;2022-11-30T09:16:12;99078.50;;;2.81;100.00
52319;BME280;38258;51.148;14.068;2022-11-30T09:18:40;99049.09;;;2.14;100.00
52319;BME280;38258;51.148;14.068;2022-11-30T09:21:09;99079.34;;;2.80;100.00
52319;BME280;38258;51.148;14.068;2022-11-30T09:23:37;99083.38;;;2.61;100.00
52319;BME280;38258;51.148;14.068;2022-11-30T09:26:06;99053.72;;;2.35;100.00
52319;BME280;38258;51.148;14.068;2022-11-30T09:28:34;99079.00;;;2.58;100.00
52319;BME280;38258;51.148;14.068;2022-11-30T09:31:03;99072.31;;;2.14;100.00
52319;BME280;38258;51.148;14.068;2022-11-30T09:33:32;99085.53;;;2.91;100.00
52319;BME280;38258;51.148;14.068;2022-11-30T09:36:03;99083.63;;;2.79;100.00
52319;BME280;38258;51.148;14.068;2022-11-30T09:38:31;99082.81;;;2.82;100.00
52319;BME280;38258;51.148;14.068;2022-11-30T09:40:59;99086.56;;;3.04;100.00
52319;BME280;38258;51.148;14.068;2022-11-30T09:43:36;99081.69;;;3.26;100.00
52319;BME280;38258;51.148;14.068;2022-11-30T09:46:06;99089.22;;;3.09;100.00
52319;BME280;38258;51.148;14.068;2022-11-30T09:48:52;99086.91;;;2.67;100.00
52319;BME280;38258;51.148;14.068;2022-11-30T09:51:24;99096.50;;;3.41;100.00
52319;BME280;38258;51.148;14.068;2022-11-30T09:53:55;99089.59;;;3.40;100.00
52319;BME280;38258;51.148;14.068;2022-11-30T09:56:25;99088.22;;;2.99;100.00
52319;BME280;38258;51.148;14.068;2022-11-30T09:58:55;99076.66;;;2.72;100.00
52319;BME280;38258;51.148;14.068;2022-11-30T10:01:23;99074.56;;;3.08;100.00
52319;BME280;38258;51.148;14.068;2022-11-30T10:03:51;99071.03;;;3.04;100.00
52319;BME280;38258;51.148;14.068;2022-11-30T10:06:22;99076.16;;;2.98;100.00
52319;BME280;38258;51.148;14.068;2022-11-30T10:09:00;99072.53;;;3.56;100.00
52319;BME280;38258;51.148;14.068;2022-11-30T10:11:43;99073.75;;;3.92;100.00
52319;BME280;38258;51.148;14.068;2022-11-30T10:14:21;99077.22;;;3.93;100.00
52319;BME280;38258;51.148;14.068;2022-11-30T10:16:56;99081.72;;;4.11;100.00
52319;BME280;38258;51.148;14.068;2022-11-30T10:19:40;99079.22;;;4.23;100.00
52319;BME280;38258;51.148;14.068;2022-11-30T10:22:17;99076.03;;;3.60;100.00
52319;BME280;38258;51.148;14.068;2022-11-30T10:25:00;99070.56;;;3.36;100.00
52319;BME280;38258;51.148;14.068;2022-11-30T10:27:38;99077.47;;;2.69;100.00
52319;BME280;38258;51.148;14.068;2022-11-30T10:30:12;99085.47;;;2.30;100.00
52319;BME280;38258;51.148;14.068;2022-11-30T10:32:40;99085.22;;;2.14;100.00
52319;BME280;38258;51.148;14.068;2022-11-30T10:35:21;99076.47;;;2.06;100.00
52319;BME280;38258;51.148;14.068;2022-11-30T10:37:50;99070.72;;;2.79;100.00
52319;BME280;38258;51.148;14.068;2022-11-30T10:40:24;99072.63;;;3.64;100.00
52319;BME280;38258;51.148;14.068;2022-11-30T10:43:04;99071.88;;;3.79;100.00
52319;BME280;38258;51.148;14.068;2022-11-30T10:45:38;99071.97;;;3.85;100.00
52319;BME280;38258;51.148;14.068;2022-11-30T10:48:13;99055.03;;;4.23;100.00
52319;BME280;38258;51.148;14.068;2022-11-30T10:50:42;99075.94;;;4.45;100.00
52319;BME280;38258;51.148;14.068;2022-11-30T10:53:10;99072.47;;;4.44;100.00
52319;BME280;38258;51.148;14.068;2022-11-30T10:55:40;99078.50;;;4.43;100.00
52319;BME280;38258;51.148;14.068;2022-11-30T10:58:14;99076.47;;;4.05;100.00
52319;BME280;38258;51.148;14.068;2022-11-30T11:00:51;99050.41;;;3.86;100.00
52319;BME280;38258;51.148;14.068;2022-11-30T11:03:22;99066.69;;;3.76;100.00
52319;BME280;38258;51.148;14.068;2022-11-30T11:06:05;99072.28;;;4.19;100.00
52319;BME280;38258;51.148;14.068;2022-11-30T11:08:33;99078.53;;;4.45;100.00
52319;BME280;38258;51.148;14.068;2022-11-30T11:11:01;99069.84;;;4.38;100.00
52319;BME280;38258;51.148;14.068;2022-11-30T11:13:36;99069.31;;;3.77;100.00
52319;BME280;38258;51.148;14.068;2022-11-30T11:16:04;99056.84;;;4.32;100.00
52319;BME280;38258;51.148;14.068;2022-11-30T11:18:32;99058.41;;;4.13;100.00
52319;BME280;38258;51.148;14.068;2022-11-30T11:21:04;99059.75;;;3.72;100.00
52319;BME280;38258;51.148;14.068;2022-11-30T11:23:34;99059.59;;;4.55;100.00
52319;BME280;38258;51.148;14.068;2022-11-30T11:26:03;99063.00;;;4.45;100.00
52319;BME280;38258;51.148;14.068;2022-11-30T11:28:31;99057.75;;;4.42;100.00
52319;BME280;38258;51.148;14.068;2022-11-30T11:31:15;99060.56;;;4.68;100.00
52319;BME280;38258;51.148;14.068;2022-11-30T11:33:50;99057.06;;;4.66;100.00
52319;BME280;38258;51.148;14.068;2022-11-30T11:36:24;99067.19;;;4.32;100.00
52319;BME280;38258;51.148;14.068;2022-11-30T11:38:51;99059.16;;;3.98;100.00
52319;BME280;38258;51.148;14.068;2022-11-30T11:41:24;99067.34;;;3.54;100.00
52319;BME280;38258;51.148;14.068;2022-11-30T11:43:58;99067.44;;;3.64;100.00
52319;BME280;38258;51.148;14.068;2022-11-30T11:46:27;99070.00;;;3.62;100.00
52319;BME280;38258;51.148;14.068;2022-11-30T11:48:56;99057.22;;;3.76;100.00
52319;BME280;38258;51.148;14.068;2022-11-30T11:51:31;99065.44;;;4.24;100.00
52319;BME280;38258;51.148;14.068;2022-11-30T11:54:01;99063.69;;;4.28;100.00
52319;BME280;38258;51.148;14.068;2022-11-30T11:56:31;99062.50;;;3.87;100.00
52319;BME280;38258;51.148;14.068;2022-11-30T11:59:02;99056.28;;;3.66;100.00
52319;BME280;38258;51.148;14.068;2022-11-30T12:01:46;99059.88;;;3.81;100.00
52319;BME280;38258;51.148;14.068;2022-11-30T12:04:35;99047.06;;;3.98;100.00
52319;BME280;38258;51.148;14.068;2022-11-30T12:07:16;99062.28;;;3.64;100.00
52319;BME280;38258;51.148;14.068;2022-11-30T12:09:53;99051.00;;;3.60;100.00
52319;BME280;38258;51.148;14.068;2022-11-30T12:12:22;99055.63;;;3.88;100.00
52319;BME280;38258;51.148;14.068;2022-11-30T12:14:48;99054.72;;;3.86;100.00
52319;BME280;38258;51.148;14.068;2022-11-30T12:17:29;99059.59;;;3.56;100.00
52319;BME280;38258;51.148;14.068;2022-11-30T12:20:04;99044.59;;;4.10;100.00
52319;BME280;38258;51.148;14.068;2022-11-30T12:22:53;99061.13;;;3.38;100.00
52319;BME280;38258;51.148;14.068;2022-11-30T12:25:27;99049.16;;;3.45;100.00
52319;BME280;38258;51.148;14.068;2022-11-30T12:28:03;99058.63;;;3.46;100.00
52319;BME280;38258;51.148;14.068;2022-11-30T12:30:48;99059.78;;;3.75;100.00
52319;BME280;38258;51.148;14.068;2022-11-30T12:33:25;99061.66;;;3.91;100.00
52319;BME280;38258;51.148;14.068;2022-11-30T12:36:01;99056.50;;;3.94;100.00
52319;BME280;38258;51.148;14.068;2022-11-30T12:38:43;99048.66;;;3.82;100.00
52319;BME280;38258;51.148;14.068;2022-11-30T12:41:26;99050.56;;;3.18;100.00
52319;BME280;38258;51.148;14.068;2022-11-30T12:44:03;99059.78;;;2.99;100.00
52319;BME280;38258;51.148;14.068;2022-11-30T12:46:42;99063.53;;;3.23;100.00
52319;BME280;38258;51.148;14.068;2022-11-30T12:49:27;99052.78;;;2.92;100.00
52319;BME280;38258;51.148;14.068;2022-11-30T12:52:05;99059.06;;;3.09;100.00
52319;BME280;38258;51.148;14.068;2022-11-30T12:54:45;99065.34;;;3.30;100.00
52319;BME280;38258;51.148;14.068;2022-11-30T12:57:18;99054.31;;;3.45;100.00